WetterOnline ( https://www.wetteronline.de )

Wetter aktuell Rostock

Aktuelles Wetter: Rostock-Warnemünde (10m)

6-stündlich | Neueste Meldungen
Ortszeit Temperatur Wetter
Di, 28.06. 2:00 18.0° C leichter Regen
Mo, 27.06. 20:00 20.1° C leichter Regen
Mo, 27.06. 14:00 22.4° C wolkig
Mo, 27.06. 8:00 22.6° C leicht bewölkt
Mo, 27.06. 2:00 19.8° C wolkenlos
So, 26.06. 20:00 22.5° C bewölkt
So, 26.06. 14:00 24.4° C bewölkt
So, 26.06. 8:00 21.1° C bedeckt
Ortszeit Temperatur Wetter
Di, 28.06. 2:30 17.9° C leichter Regen
Di, 28.06. 2:20 17.9° C leichter Regen
Di, 28.06. 2:10 17.8° C bedeckt
Di, 28.06. 2:00 18.0° C leichter Regen
Di, 28.06. 1:50 18.0° C leichter Regen
Di, 28.06. 1:40 18.1° C bedeckt
Di, 28.06. 1:30 18.1° C bedeckt
Di, 28.06. 1:00 18.3° C bedeckt
Di, 28.06. 0:30 18.3° C bedeckt
Di, 28.06. 0:00 18.4° C bedeckt
Mo, 27.06. 23:30 18.3° C bedeckt
Ortszeit Relative Feuchte Sichtweite
Di, 28.06. 2:00 92% 26 km
Mo, 27.06. 20:00 93% 12 km
Mo, 27.06. 14:00 77% 24 km
Mo, 27.06. 8:00 73% 25 km
Mo, 27.06. 2:00 91% 19 km
So, 26.06. 20:00 84% 26 km
So, 26.06. 14:00 77% 17 km
So, 26.06. 8:00 82% 21 km
Ortszeit Relative Feuchte Sichtweite
Di, 28.06. 2:30 90% 20 km
Di, 28.06. 2:20 90% -
Di, 28.06. 2:10 90% -
Di, 28.06. 2:00 92% 26 km
Di, 28.06. 1:50 92% -
Di, 28.06. 1:40 92% -
Di, 28.06. 1:30 92% 20 km
Di, 28.06. 1:00 93% 16 km
Di, 28.06. 0:30 93% 17 km
Di, 28.06. 0:00 92% 24 km
Mo, 27.06. 23:30 92% 24 km
Ortszeit Niederschlagsmenge Niederschlagsart
Di, 28.06. 2:00 0.1 l/m2 in 6 Std. Regen
Mo, 27.06. 20:00 3 l/m2 in 12 Std. Regen
Mo, 27.06. 14:00 0.0 l/m2 in 6 Std. -
Mo, 27.06. 8:00 0.1 l/m2 in 12 Std. -
Mo, 27.06. 2:00 0.1 l/m2 in 6 Std. Regen
So, 26.06. 20:00 7 l/m2 in 12 Std. Regen, Niederschlag
So, 26.06. 14:00 0.0 l/m2 in 6 Std. -
So, 26.06. 8:00 0.1 l/m2 in 12 Std. -
Ortszeit Niederschlagsmenge Niederschlagsart
Di, 28.06. 2:30 0.1 l/m2 in 1 Std. -
Di, 28.06. 2:20 keine Meldung -
Di, 28.06. 2:10 keine Meldung -
Di, 28.06. 2:00 0.1 l/m2 in 1 Std. Regen
Di, 28.06. 1:50 keine Meldung -
Di, 28.06. 1:40 keine Meldung -
Di, 28.06. 1:30 0.1 l/m2 in 1 Std. Schnee
Di, 28.06. 1:00 0.0 l/m2 in 1 Std. -
Di, 28.06. 0:30 0.0 l/m2 in 1 Std. -
Di, 28.06. 0:00 0.0 l/m2 in 1 Std. -
Mo, 27.06. 23:30 0.0 l/m2 in 1 Std. -
Ortszeit Stärke Spitze Richtung
km/h Bft. km/h Grad Sektor
Di, 28.06. 2:00 14 3 47 340° N
Mo, 27.06. 20:00 33 5 43 280° W
Mo, 27.06. 14:00 7 2 25 320° NW
Mo, 27.06. 8:00 11 2 25 140° SO
Mo, 27.06. 2:00 11 2 18 20° N
So, 26.06. 20:00 7 2 32 300° NW
So, 26.06. 14:00 11 2 19 20° N
So, 26.06. 8:00 7 2 18 150° SO
Ortszeit Stärke Spitze Richtung
km/h Bft. km/h Grad Sektor
Di, 28.06. 2:30 13 3 19 330° NW
Di, 28.06. 2:20 13 3 - 330° NW
Di, 28.06. 2:10 14 3 - 320° NW
Di, 28.06. 2:00 14 3 29 340° N
Di, 28.06. 1:50 14 3 - 340° N
Di, 28.06. 1:40 17 3 - 340° N
Di, 28.06. 1:30 18 3 29 330° NW
Di, 28.06. 1:00 22 4 29 290° W
Di, 28.06. 0:30 18 3 25 290° W
Di, 28.06. 0:00 20 4 33 300° NW
Mo, 27.06. 23:30 24 4 33 300° NW
Ortszeit Untergrenze Bedeckung Gattung
total tief tief mittel hoch
Di, 28.06. 2:00 210 m 8/8 8/8 - - -
Mo, 27.06. 20:00 2100 m 8/8 1/8 - - -
Mo, 27.06. 14:00 5400 m 6/8 6/8 - - -
Mo, 27.06. 8:00 8400 m 4/8 0/8 - - -
Mo, 27.06. 2:00 - 0/8 0/8 - - -
So, 26.06. 20:00 4200 m 7/8 7/8 - - -
So, 26.06. 14:00 1320 m 7/8 7/8 - - -
So, 26.06. 8:00 4200 m 8/8 8/8 - - -
Ortszeit Bedeckungsgrad in Achtel und Wolkenuntergrenze
Di, 28.06. 2:30 8(240m)
Di, 28.06. 2:20 8(240m)
Di, 28.06. 2:10 8
Di, 28.06. 2:00 8(210m)
Di, 28.06. 1:50 8(210m)
Di, 28.06. 1:40 8
Di, 28.06. 1:30 8(210m)
Di, 28.06. 1:00 8(150m)
Di, 28.06. 0:30 8(180m)
Di, 28.06. 0:00 8(210m)
Mo, 27.06. 23:30 7(270m) 8(480m)
Ortszeit Luftdruck NN (hPa) Tendenz (hPa in 3 Std.)
Di, 28.06. 2:00 1016 0,0
Mo, 27.06. 20:00 1014 + 1,0
Mo, 27.06. 14:00 1012 - 1,1
Mo, 27.06. 8:00 1013 - 0,5
Mo, 27.06. 2:00 1015 - 1,4
So, 26.06. 20:00 1015 - 0,3
So, 26.06. 14:00 1015 + 0,4
So, 26.06. 8:00 1014 + 0,3
Ortszeit Luftdruck NN (hPa) Tendenz (hPa in 3 Std.)
Di, 28.06. 2:30 1017 + 0,1
Di, 28.06. 2:20 1017 keine Meldung
Di, 28.06. 2:10 1017 keine Meldung
Di, 28.06. 2:00 1016 0,0
Di, 28.06. 1:50 1016 keine Meldung
Di, 28.06. 1:40 1016 keine Meldung
Di, 28.06. 1:30 1017 0,0
Di, 28.06. 1:00 1017 + 0,9
Di, 28.06. 0:30 1017 + 1,2
Di, 28.06. 0:00 1017 + 1,9
Mo, 27.06. 23:30 1017 + 2,0
Ortszeit Schneehöhe (cm)
Di, 28.06. 2:00 0
Mo, 27.06. 20:00 0
Mo, 27.06. 14:00 0
Mo, 27.06. 8:00 0
Mo, 27.06. 2:00 0
So, 26.06. 20:00 0
So, 26.06. 14:00 0
So, 26.06. 8:00 0
Ortszeit Schneehöhe (cm)
Di, 28.06. 2:30 0
Di, 28.06. 2:20 0
Di, 28.06. 2:10 0
Di, 28.06. 2:00 0
Di, 28.06. 1:50 0
Di, 28.06. 1:40 0
Di, 28.06. 1:30 0
Di, 28.06. 1:00 0
Di, 28.06. 0:30 0
Di, 28.06. 0:00 0
Mo, 27.06. 23:30 0
Link zu dieser Seite / Seite empfehlen

Das Wetter in ...